Time;durP1;ratioP1;P1;durP2;ratioP2;P2;SDS_P1;SDS_P2;PMS_P1;PMS_P2;Temp;Humidity;BMP_temperature;BMP_pressure;BME280_temperature;BME280_humidity;BME280_pressure;Samples;Min_cycle;Max_cycle;Signal;HPM_P1;HPM_P2
2023/01/16 00:00:51;;;;;;;7.32;2.80;;;4.40;90.40;;;;;;5023574;28;20037;-78
2023/01/16 00:03:17;;;;;;;8.05;3.22;;;4.40;90.50;;;;;;5017971;28;20337;-77
2023/01/16 00:05:43;;;;;;;10.07;2.90;;;4.40;90.60;;;;;;5030102;28;20504;-77
2023/01/16 00:08:09;;;;;;;12.13;2.65;;;4.30;90.50;;;;;;5030897;28;20021;-78
2023/01/16 00:10:34;;;;;;;8.60;2.53;;;4.30;90.70;;;;;;5028013;28;20021;-78
2023/01/16 00:13:00;;;;;;;6.57;2.53;;;4.30;90.60;;;;;;5023949;28;20100;-79
2023/01/16 00:15:26;;;;;;;11.60;3.13;;;4.30;90.70;;;;;;5023570;28;20029;-78
2023/01/16 00:17:52;;;;;;;7.28;2.50;;;4.30;90.60;;;;;;5026419;28;20669;-77
2023/01/16 00:20:18;;;;;;;5.95;2.55;;;4.30;90.60;;;;;;5020058;28;20472;-77
2023/01/16 00:22:44;;;;;;;4.68;2.42;;;4.40;90.50;;;;;;5028504;28;20029;-78
2023/01/16 00:25:10;;;;;;;5.85;2.40;;;4.30;90.40;;;;;;5030930;28;20059;-78
2023/01/16 00:27:36;;;;;;;6.35;2.10;;;4.40;90.40;;;;;;5029399;28;20060;-77
2023/01/16 00:30:02;;;;;;;6.13;2.47;;;4.40;90.30;;;;;;5033190;28;20104;-77
2023/01/16 00:32:27;;;;;;;4.20;1.65;;;4.40;90.30;;;;;;5025888;28;20049;-77
2023/01/16 00:34:53;;;;;;;3.85;1.70;;;4.40;90.30;;;;;;5032861;28;20035;-78
2023/01/16 00:37:19;;;;;;;8.35;2.20;;;4.40;90.20;;;;;;5016646;28;20073;-77
2023/01/16 00:39:44;;;;;;;5.82;1.88;;;4.40;90.10;;;;;;5033084;28;20030;-77
2023/01/16 00:42:10;;;;;;;8.23;2.30;;;4.40;90.00;;;;;;5031996;28;20037;-77
2023/01/16 00:44:36;;;;;;;8.45;2.30;;;4.40;90.00;;;;;;5036685;28;20158;-77
2023/01/16 00:47:02;;;;;;;5.85;1.90;;;4.40;90.00;;;;;;5023557;28;20983;-77
2023/01/16 00:49:27;;;;;;;5.85;1.85;;;4.40;90.00;;;;;;5025518;28;20060;-77
2023/01/16 00:51:53;;;;;;;6.15;2.35;;;4.40;90.10;;;;;;5027003;28;20025;-78
2023/01/16 00:54:19;;;;;;;4.85;2.03;;;4.40;90.00;;;;;;5022432;28;20741;-76
2023/01/16 00:56:45;;;;;;;7.50;2.85;;;4.40;89.90;;;;;;5018954;28;20492;-78
2023/01/16 00:59:11;;;;;;;7.18;3.22;;;4.40;89.90;;;;;;5022344;28;20017;-77
2023/01/16 01:01:37;;;;;;;7.63;2.33;;;4.40;89.90;;;;;;5024974;28;20033;-78
2023/01/16 01:04:03;;;;;;;5.88;3.08;;;4.40;89.90;;;;;;5028120;28;20033;-78
2023/01/16 01:06:29;;;;;;;6.28;2.38;;;4.40;90.00;;;;;;5020750;28;20414;-78
2023/01/16 01:08:55;;;;;;;6.88;3.17;;;4.40;89.90;;;;;;5025664;28;20040;-77
2023/01/16 01:11:21;;;;;;;8.95;3.00;;;4.40;90.00;;;;;;5019834;28;20131;-76
2023/01/16 01:13:47;;;;;;;8.95;2.70;;;4.50;90.00;;;;;;5030792;28;20072;-77
2023/01/16 01:16:13;;;;;;;6.45;2.33;;;4.50;89.90;;;;;;5020526;28;20062;-78
2023/01/16 01:18:38;;;;;;;11.30;4.47;;;4.60;89.70;;;;;;5017267;28;20040;-79
2023/01/16 01:21:05;;;;;;;8.45;2.78;;;4.60;89.70;;;;;;5023207;28;20034;-77
2023/01/16 01:23:31;;;;;;;7.63;2.30;;;4.50;89.80;;;;;;5017739;28;20114;-77
2023/01/16 01:25:57;;;;;;;8.85;3.13;;;4.60;89.90;;;;;;5018242;28;20037;-77
2023/01/16 01:28:22;;;;;;;10.30;4.00;;;4.60;89.90;;;;;;5010594;28;20029;-77
2023/01/16 01:30:48;;;;;;;7.13;2.75;;;4.60;89.90;;;;;;5022899;28;20033;-77
2023/01/16 01:33:14;;;;;;;9.60;3.60;;;4.60;89.90;;;;;;5021511;28;20026;-77
2023/01/16 01:35:40;;;;;;;9.10;3.30;;;4.70;89.80;;;;;;5009393;28;20041;-77
2023/01/16 01:38:05;;;;;;;14.27;4.03;;;4.60;89.70;;;;;;5030136;28;20041;-77
2023/01/16 01:40:33;;;;;;;12.23;3.72;;;4.60;89.80;;;;;;5027382;28;20712;-77
2023/01/16 01:42:58;;;;;;;12.07;4.72;;;4.70;89.70;;;;;;5022952;28;20468;-79
2023/01/16 01:45:27;;;;;;;13.90;4.68;;;4.70;89.70;;;;;;5009811;28;20112;-76
2023/01/16 01:48:04;;;;;;;16.90;5.65;;;4.70;89.60;;;;;;5029858;28;20120;-76
2023/01/16 01:50:40;;;;;;;14.02;4.35;;;4.70;89.70;;;;;;5021865;28;20021;-77
2023/01/16 01:53:16;;;;;;;13.20;4.32;;;4.80;89.70;;;;;;5023213;28;20025;-77
2023/01/16 01:55:46;;;;;;;13.40;3.83;;;4.80;89.80;;;;;;5029855;28;20033;-78
2023/01/16 01:58:18;;;;;;;11.57;3.97;;;4.80;89.80;;;;;;5030339;28;20021;-77
2023/01/16 02:00:45;;;;;;;9.45;3.30;;;4.90;89.70;;;;;;5022822;28;20038;-77
2023/01/16 02:03:16;;;;;;;9.80;3.28;;;4.90;89.70;;;;;;5033199;28;20067;-76
2023/01/16 02:05:49;;;;;;;10.40;3.17;;;4.90;89.70;;;;;;5035396;28;20469;-79
2023/01/16 02:08:19;;;;;;;10.95;3.20;;;4.90;89.80;;;;;;5029925;28;20029;-78
2023/01/16 02:11:02;;;;;;;14.98;3.80;;;4.90;89.90;;;;;;5032982;28;20049;-76
2023/01/16 02:13:28;;;;;;;12.63;3.35;;;4.90;89.90;;;;;;5018091;28;20045;-77
2023/01/16 02:21:46;;;;;;;14.15;3.90;;;5.10;89.80;;;;;;5029895;28;20056;-79
2023/01/16 02:24:36;;;;;;;16.77;4.00;;;5.10;89.80;;;;;;5030666;28;20096;-79
2023/01/16 02:27:23;;;;;;;14.10;4.22;;;5.10;89.70;;;;;;5018159;28;20724;-78
2023/01/16 02:30:12;;;;;;;13.00;5.25;;;5.20;89.80;;;;;;5025485;28;20026;-77
2023/01/16 02:33:04;;;;;;;16.58;3.90;;;5.20;89.80;;;;;;5004778;28;20042;-77
2023/01/16 02:35:36;;;;;;;10.30;4.07;;;5.30;89.90;;;;;;5008601;28;20588;-76
2023/01/16 02:38:17;;;;;;;10.75;3.78;;;5.30;90.00;;;;;;4992916;28;20080;-77
2023/01/16 02:40:58;;;;;;;13.50;4.00;;;5.40;90.10;;;;;;5000988;28;20034;-77
2023/01/16 02:43:42;;;;;;;12.75;4.25;;;5.40;90.00;;;;;;4991747;28;20026;-76
2023/01/16 02:46:10;;;;;;;13.48;3.85;;;5.40;90.20;;;;;;4987340;28;20030;-77
2023/01/16 02:48:47;;;;;;;13.43;4.15;;;5.50;90.10;;;;;;5002318;28;20034;-77
2023/01/16 02:51:55;;;;;;;14.48;3.78;;;5.50;90.20;;;;;;4992910;28;20089;-76
2023/01/16 02:54:38;;;;;;;14.10;3.53;;;5.50;90.40;;;;;;4986007;28;20054;-76
2023/01/16 02:57:10;;;;;;;13.82;3.40;;;5.50;90.40;;;;;;4999578;28;20022;-78
2023/01/16 02:59:36;;;;;;;13.23;3.75;;;5.50;90.40;;;;;;4999839;28;20057;-78
2023/01/16 03:02:02;;;;;;;14.10;3.80;;;5.50;90.50;;;;;;5002390;28;20030;-78
2023/01/16 03:04:43;;;;;;;16.35;3.97;;;5.60;90.50;;;;;;5001255;28;20094;-79
2023/01/16 03:07:21;;;;;;;14.07;3.35;;;5.60;90.50;;;;;;5003404;28;20042;-77
2023/01/16 03:10:10;;;;;;;11.48;3.05;;;5.60;90.70;;;;;;4999405;28;20032;-77
2023/01/16 03:12:36;;;;;;;15.88;4.63;;;5.60;90.70;;;;;;5000546;28;20034;-77
2023/01/16 03:15:26;;;;;;;11.38;2.92;;;5.60;90.70;;;;;;5003731;28;20065;-76
2023/01/16 03:18:25;;;;;;;14.13;3.47;;;5.60;90.80;;;;;;5001504;28;20538;-76
2023/01/16 03:21:04;;;;;;;13.43;3.53;;;5.60;90.90;;;;;;4992967;28;20045;-77
2023/01/16 03:23:43;;;;;;;11.30;3.67;;;5.60;90.90;;;;;;5002592;28;20109;-77
2023/01/16 03:26:36;;;;;;;16.20;3.20;;;5.60;90.90;;;;;;4999421;28;20554;-77
2023/01/16 03:29:15;;;;;;;13.57;3.63;;;5.60;91.00;;;;;;4992916;28;20092;-77
2023/01/16 03:31:47;;;;;;;10.85;3.03;;;5.60;91.00;;;;;;5001941;28;20727;-77
2023/01/16 03:34:58;;;;;;;15.50;3.25;;;5.60;91.00;;;;;;5001105;28;20076;-76
2023/01/16 03:37:41;;;;;;;8.77;2.40;;;5.70;90.90;;;;;;4992883;28;20042;-78
2023/01/16 03:40:10;;;;;;;8.38;2.60;;;5.70;90.90;;;;;;4998434;28;20045;-77
2023/01/16 03:43:06;;;;;;;9.63;2.22;;;5.70;90.80;;;;;;5006080;28;20029;-78
2023/01/16 03:46:01;;;;;;;12.23;2.55;;;5.70;90.70;;;;;;5006813;28;20056;-77
2023/01/16 03:49:00;;;;;;;13.07;3.45;;;5.70;90.80;;;;;;4998635;28;20025;-76
2023/01/16 03:51:29;;;;;;;10.15;2.20;;;5.80;90.60;;;;;;4998649;28;20026;-77
2023/01/16 03:54:22;;;;;;;10.57;2.28;;;5.80;90.80;;;;;;4994565;28;20019;-76
2023/01/16 03:57:07;;;;;;;9.50;2.80;;;5.70;90.80;;;;;;5001132;28;20037;-78
2023/01/16 03:59:33;;;;;;;12.15;2.65;;;5.70;90.90;;;;;;5001086;28;20034;-77
2023/01/16 04:02:18;;;;;;;9.02;2.28;;;5.70;91.00;;;;;;4997083;28;20501;-77
2023/01/16 04:04:51;;;;;;;11.75;2.60;;;5.70;90.90;;;;;;5000587;28;20470;-77
2023/01/16 04:07:24;;;;;;;12.05;2.40;;;5.70;91.00;;;;;;5011902;28;20557;-80
2023/01/16 04:10:00;;;;;;;11.07;2.20;;;5.70;91.00;;;;;;5001553;28;20018;-77
2023/01/16 04:12:32;;;;;;;14.23;3.35;;;5.70;91.00;;;;;;5013234;28;20030;-78
2023/01/16 04:15:01;;;;;;;8.02;2.40;;;5.70;91.00;;;;;;4994229;28;20651;-78
2023/01/16 04:17:28;;;;;;;6.82;2.10;;;5.80;91.00;;;;;;5005237;28;20076;-76
2023/01/16 04:19:54;;;;;;;8.00;2.40;;;5.80;91.10;;;;;;5017137;28;20083;-79
2023/01/16 04:22:25;;;;;;;13.90;2.72;;;5.80;91.00;;;;;;5021707;28;20801;-77
2023/01/16 04:24:53;;;;;;;12.63;2.40;;;5.80;91.00;;;;;;5010592;28;20083;-76
2023/01/16 04:27:19;;;;;;;9.95;2.25;;;5.80;91.00;;;;;;5014490;28;20059;-77
2023/01/16 04:29:45;;;;;;;10.15;2.40;;;5.80;91.10;;;;;;5009391;28;20661;-77
2023/01/16 04:32:11;;;;;;;9.82;2.28;;;5.80;91.20;;;;;;5011359;28;20029;-77
2023/01/16 04:34:37;;;;;;;11.07;2.40;;;5.80;91.10;;;;;;5005655;28;20121;-78
2023/01/16 04:37:03;;;;;;;11.98;2.22;;;5.80;91.00;;;;;;5006198;28;20129;-76
2023/01/16 04:39:29;;;;;;;8.60;2.40;;;5.80;91.00;;;;;;4999244;28;20058;-77
2023/01/16 04:41:54;;;;;;;10.82;2.00;;;5.80;91.00;;;;;;5013771;28;20048;-78
2023/01/16 04:44:20;;;;;;;9.75;2.38;;;5.80;91.10;;;;;;5000149;28;20072;-76
2023/01/16 04:46:46;;;;;;;8.40;2.55;;;5.80;91.00;;;;;;5006277;28;20029;-78
2023/01/16 04:49:11;;;;;;;8.18;2.40;;;5.80;90.90;;;;;;5008130;28;20029;-78
2023/01/16 04:51:38;;;;;;;8.73;2.75;;;5.80;90.90;;;;;;5002251;28;20037;-77
2023/01/16 04:54:05;;;;;;;14.60;3.00;;;5.80;90.90;;;;;;5005084;28;20062;-77
2023/01/16 04:56:32;;;;;;;11.70;2.75;;;5.80;90.80;;;;;;5001263;28;20042;-76
2023/01/16 04:58:57;;;;;;;13.73;3.10;;;5.80;90.50;;;;;;5001787;28;20113;-79
2023/01/16 05:01:23;;;;;;;8.23;3.42;;;5.80;90.50;;;;;;4995432;28;20117;-77
2023/01/16 05:03:49;;;;;;;9.35;2.75;;;5.80;90.50;;;;;;5003801;28;20559;-76
2023/01/16 05:06:15;;;;;;;10.13;2.88;;;5.80;90.50;;;;;;5003823;28;20034;-79
2023/01/16 05:08:41;;;;;;;11.27;3.58;;;5.80;90.40;;;;;;5006886;28;20061;-78
2023/01/16 05:11:07;;;;;;;10.77;2.40;;;5.80;90.40;;;;;;4999783;28;20129;-77
2023/01/16 05:13:32;;;;;;;9.07;2.53;;;5.70;90.20;;;;;;4993088;28;20482;-78
2023/01/16 05:15:58;;;;;;;10.52;2.67;;;5.80;90.20;;;;;;5000839;28;20643;-76
2023/01/16 05:18:24;;;;;;;8.27;2.05;;;5.80;90.00;;;;;;5008960;28;20144;-77
2023/01/16 05:20:50;;;;;;;7.40;2.50;;;5.80;90.10;;;;;;4996274;28;20027;-76
2023/01/16 05:23:16;;;;;;;8.63;3.08;;;5.80;90.30;;;;;;5001107;28;20092;-79
2023/01/16 05:25:42;;;;;;;6.72;2.20;;;5.80;90.40;;;;;;4999680;28;20021;-79
2023/01/16 05:28:08;;;;;;;7.97;2.53;;;5.70;90.40;;;;;;4997810;28;20033;-76
2023/01/16 05:30:34;;;;;;;7.47;2.67;;;5.80;90.30;;;;;;5000023;28;20056;-78
2023/01/16 05:33:01;;;;;;;8.85;1.90;;;5.80;90.40;;;;;;5012198;28;20061;-77
2023/01/16 05:35:27;;;;;;;5.63;1.80;;;5.70;90.50;;;;;;4989082;28;20057;-77
2023/01/16 05:37:52;;;;;;;7.07;2.72;;;5.70;90.40;;;;;;5004382;28;20053;-77
2023/01/16 05:40:18;;;;;;;4.38;1.60;;;5.80;90.20;;;;;;4989427;28;20039;-77
2023/01/16 05:42:44;;;;;;;4.50;1.85;;;5.70;90.20;;;;;;4991562;28;20062;-76
2023/01/16 05:45:10;;;;;;;4.53;1.80;;;5.80;90.20;;;;;;4997996;28;20030;-78
2023/01/16 05:47:36;;;;;;;5.50;1.83;;;5.80;90.00;;;;;;4987148;28;20479;-75
2023/01/16 05:50:02;;;;;;;6.60;1.80;;;5.80;90.20;;;;;;4995903;28;20069;-76
2023/01/16 05:52:28;;;;;;;3.17;1.88;;;5.80;90.20;;;;;;4991395;28;20026;-75
2023/01/16 05:54:55;;;;;;;5.10;1.70;;;5.70;90.00;;;;;;4991123;28;20026;-76
2023/01/16 05:57:22;;;;;;;2.22;1.40;;;5.80;89.80;;;;;;4987166;28;20045;-78
2023/01/16 05:59:49;;;;;;;2.80;1.30;;;5.80;89.80;;;;;;5004765;28;20034;-78
2023/01/16 06:02:15;;;;;;;3.00;1.42;;;5.70;89.70;;;;;;5003079;28;20038;-77
2023/01/16 06:04:41;;;;;;;1.73;1.38;;;5.80;89.50;;;;;;5006994;28;20958;-77
2023/01/16 06:07:07;;;;;;;2.75;0.98;;;5.70;89.40;;;;;;5001924;28;20148;-77
2023/01/16 06:09:32;;;;;;;2.60;1.23;;;5.70;89.30;;;;;;5000605;28;20033;-76
2023/01/16 06:11:58;;;;;;;2.20;1.10;;;5.70;89.40;;;;;;5001395;28;20044;-77
2023/01/16 06:14:24;;;;;;;1.65;1.20;;;5.70;89.30;;;;;;5003854;28;20108;-77
2023/01/16 06:16:49;;;;;;;1.80;1.20;;;5.70;89.20;;;;;;5002389;28;20099;-77
2023/01/16 06:19:15;;;;;;;3.75;1.20;;;5.70;89.00;;;;;;4995998;28;20030;-76
2023/01/16 06:21:41;;;;;;;2.60;1.55;;;5.70;89.00;;;;;;4981641;28;20572;-76
2023/01/16 06:24:07;;;;;;;1.65;1.17;;;5.70;88.70;;;;;;4999453;28;20481;-76
2023/01/16 06:26:32;;;;;;;2.45;1.10;;;5.70;88.50;;;;;;4996308;28;20666;-75
2023/01/16 06:28:58;;;;;;;4.20;1.52;;;5.70;88.70;;;;;;4995021;28;20032;-77
2023/01/16 06:31:24;;;;;;;1.98;1.10;;;5.70;88.40;;;;;;5005970;28;20486;-75
2023/01/16 06:33:50;;;;;;;3.13;1.23;;;5.70;88.30;;;;;;5003039;28;20062;-76
2023/01/16 06:36:15;;;;;;;3.00;1.20;;;5.70;88.20;;;;;;4986920;28;20042;-77
2023/01/16 06:38:41;;;;;;;2.72;1.20;;;5.70;88.20;;;;;;5005566;28;20093;-77
2023/01/16 06:41:07;;;;;;;2.67;1.35;;;5.60;88.60;;;;;;4996256;28;20437;-77
2023/01/16 06:43:32;;;;;;;3.90;1.30;;;5.70;88.80;;;;;;4998645;28;20034;-76
2023/01/16 06:45:58;;;;;;;2.42;1.10;;;5.70;88.90;;;;;;5003516;28;20084;-77
2023/01/16 06:48:24;;;;;;;2.95;1.65;;;5.60;88.80;;;;;;5000569;28;20029;-77
2023/01/16 06:50:50;;;;;;;2.53;1.25;;;5.60;89.30;;;;;;4996815;28;20617;-77
2023/01/16 06:53:15;;;;;;;3.50;1.45;;;5.60;89.50;;;;;;5007226;28;20025;-76
2023/01/16 06:55:41;;;;;;;4.47;1.50;;;5.60;89.50;;;;;;5007479;28;20180;-77
2023/01/16 06:58:08;;;;;;;3.60;1.30;;;5.60;89.50;;;;;;4995057;28;20048;-76
2023/01/16 07:00:34;;;;;;;1.70;1.20;;;5.60;89.60;;;;;;4994967;28;20153;-76
2023/01/16 07:03:01;;;;;;;2.28;1.20;;;5.60;89.60;;;;;;4997086;28;20023;-76
2023/01/16 07:05:28;;;;;;;2.38;1.42;;;5.60;89.40;;;;;;5003886;28;20037;-76
2023/01/16 07:07:54;;;;;;;3.67;1.40;;;5.60;89.40;;;;;;5003763;28;20080;-77
2023/01/16 07:10:20;;;;;;;5.28;1.30;;;5.60;89.40;;;;;;4993657;28;20026;-76
2023/01/16 07:12:47;;;;;;;2.70;1.38;;;5.70;89.20;;;;;;5001639;28;20446;-76
2023/01/16 07:23:34;;;;;;;2.58;1.20;;;5.80;89.10;;;;;;4999167;28;20121;-75
2023/01/16 07:26:02;;;;;;;1.63;1.20;;;5.80;89.00;;;;;;5005345;28;20079;-76
2023/01/16 07:28:29;;;;;;;5.30;1.50;;;5.70;89.10;;;;;;5007570;28;20092;-77
2023/01/16 07:30:57;;;;;;;2.97;1.60;;;5.80;89.10;;;;;;5008195;28;20044;-76
2023/01/16 07:33:22;;;;;;;5.15;1.95;;;5.80;89.20;;;;;;5006970;28;20065;-76
2023/01/16 07:35:48;;;;;;;3.20;1.70;;;5.80;89.10;;;;;;5005011;28;20685;-77
2023/01/16 07:38:14;;;;;;;3.05;1.35;;;5.90;89.10;;;;;;4999704;28;20021;-76
2023/01/16 07:40:40;;;;;;;4.55;1.50;;;5.80;89.10;;;;;;5003545;28;20038;-77
2023/01/16 07:43:07;;;;;;;5.35;1.60;;;5.80;89.10;;;;;;5005077;28;20025;-76
2023/01/16 07:45:32;;;;;;;4.82;1.40;;;5.90;89.00;;;;;;5008424;28;20034;-77
2023/01/16 07:48:00;;;;;;;3.95;1.58;;;5.90;89.00;;;;;;4998150;28;20030;-78
2023/01/16 07:50:26;;;;;;;4.93;1.92;;;6.00;88.90;;;;;;5002834;28;20394;-77
2023/01/16 07:52:52;;;;;;;4.43;1.60;;;6.00;88.90;;;;;;5001338;28;20037;-76
2023/01/16 07:55:17;;;;;;;4.68;1.40;;;6.00;88.80;;;;;;5006477;28;20506;-76
2023/01/16 07:57:43;;;;;;;2.65;1.50;;;6.00;88.70;;;;;;4999908;28;20037;-77
2023/01/16 08:00:10;;;;;;;3.10;1.60;;;6.00;88.80;;;;;;5000692;28;20018;-76
2023/01/16 08:02:37;;;;;;;5.25;2.10;;;6.00;88.60;;;;;;5001014;28;20042;-77
2023/01/16 08:05:03;;;;;;;4.05;1.50;;;6.10;88.60;;;;;;5003065;28;20033;-76
2023/01/16 08:07:29;;;;;;;7.03;1.70;;;6.00;88.50;;;;;;4995523;28;20117;-76
2023/01/16 08:09:55;;;;;;;3.80;1.63;;;6.00;88.50;;;;;;5011303;28;20439;-78
2023/01/16 08:12:20;;;;;;;6.45;1.70;;;6.00;88.30;;;;;;5000127;28;20114;-76
2023/01/16 08:14:46;;;;;;;4.25;2.03;;;6.00;88.20;;;;;;5008021;28;20045;-74
2023/01/16 08:17:12;;;;;;;5.93;2.00;;;6.00;88.10;;;;;;5005809;28;20043;-75
2023/01/16 08:19:37;;;;;;;5.65;2.03;;;6.00;88.10;;;;;;5001523;28;20029;-76
2023/01/16 08:22:03;;;;;;;4.57;1.98;;;6.00;88.00;;;;;;5005999;28;20030;-76
2023/01/16 08:24:29;;;;;;;5.78;1.95;;;6.00;87.90;;;;;;4988351;28;20057;-75
2023/01/16 08:26:55;;;;;;;3.83;1.70;;;6.00;88.00;;;;;;5000926;28;20061;-76
2023/01/16 08:29:22;;;;;;;4.57;1.95;;;6.00;88.10;;;;;;5004453;28;20021;-75
2023/01/16 08:31:47;;;;;;;4.35;1.80;;;6.00;88.00;;;;;;4998126;28;20040;-75
2023/01/16 08:34:13;;;;;;;4.47;1.63;;;6.00;88.00;;;;;;5004531;28;20116;-76
2023/01/16 08:36:38;;;;;;;5.97;1.67;;;5.90;87.90;;;;;;5001734;28;20457;-75
2023/01/16 08:39:04;;;;;;;5.18;2.17;;;5.90;87.90;;;;;;4999046;28;20128;-75
2023/01/16 08:52:34;;;;;;;5.85;2.50;;;5.80;88.20;;;;;;5001466;28;20134;-75
2023/01/16 08:54:59;;;;;;;5.82;2.33;;;5.80;88.40;;;;;;4999697;28;20038;-73
2023/01/16 08:57:27;;;;;;;5.93;2.38;;;5.80;88.60;;;;;;4998050;28;20593;-73
2023/01/16 08:59:54;;;;;;;6.10;2.15;;;5.80;88.50;;;;;;5003112;28;20022;-73
2023/01/16 09:02:20;;;;;;;4.38;1.60;;;5.80;88.50;;;;;;4999298;28;20071;-74
2023/01/16 09:04:47;;;;;;;5.63;1.88;;;5.80;88.50;;;;;;5007732;28;20053;-74
2023/01/16 09:07:13;;;;;;;3.78;2.05;;;5.80;88.60;;;;;;5007459;28;20092;-74
2023/01/16 09:09:40;;;;;;;5.53;1.83;;;5.80;88.60;;;;;;5000781;28;20104;-75
2023/01/16 09:14:56;;;;;;;4.03;1.95;;;5.80;88.60;;;;;;4994999;28;20057;-75
2023/01/16 09:17:24;;;;;;;4.25;2.03;;;5.90;88.50;;;;;;5001776;28;20043;-74
2023/01/16 09:19:50;;;;;;;3.67;2.05;;;5.90;88.40;;;;;;4995916;28;20032;-75
2023/01/16 09:22:16;;;;;;;4.57;1.77;;;5.90;88.50;;;;;;4994283;28;20034;-73
2023/01/16 09:24:41;;;;;;;5.10;1.80;;;5.90;88.00;;;;;;4998152;28;20044;-75
2023/01/16 09:27:07;;;;;;;3.95;1.40;;;5.90;88.00;;;;;;4999150;28;20039;-73
2023/01/16 09:29:33;;;;;;;3.63;1.42;;;5.90;88.00;;;;;;5005490;28;20034;-74
2023/01/16 09:32:00;;;;;;;3.17;1.35;;;5.90;87.90;;;;;;4998571;28;20065;-74
2023/01/16 09:34:26;;;;;;;1.65;1.38;;;5.90;87.70;;;;;;4993036;28;20477;-74
2023/01/16 09:36:52;;;;;;;1.90;1.20;;;5.80;87.70;;;;;;4998570;28;20076;-75
2023/01/16 09:39:17;;;;;;;2.05;1.30;;;5.80;87.60;;;;;;5000189;28;20022;-75
2023/01/16 09:45:24;;;;;;;2.85;1.27;;;5.70;87.30;;;;;;5004435;28;20149;-74
2023/01/16 09:48:01;;;;;;;2.70;1.30;;;5.70;87.10;;;;;;5012178;28;20045;-74
2023/01/16 09:50:38;;;;;;;1.95;1.30;;;5.70;87.20;;;;;;5027681;28;20030;-76
2023/01/16 09:58:48;;;;;;;3.05;1.58;;;5.80;87.00;;;;;;5025251;28;20044;-75
2023/01/16 10:01:31;;;;;;;2.95;1.30;;;6.00;86.80;;;;;;5012416;28;20042;-75
2023/01/16 10:04:20;;;;;;;4.38;1.70;;;6.10;86.60;;;;;;5023549;28;20025;-76
2023/01/16 10:10:33;;;;;;;3.35;1.50;;;6.10;86.20;;;;;;4994699;28;20029;-76
2023/01/16 10:13:27;;;;;;;3.60;1.40;;;6.20;86.00;;;;;;5013849;28;20045;-77
2023/01/16 10:16:12;;;;;;;4.35;1.85;;;6.20;85.90;;;;;;5017876;28;20042;-78
2023/01/16 10:18:52;;;;;;;5.75;1.60;;;6.30;86.00;;;;;;5035323;28;20072;-80
2023/01/16 10:21:27;;;;;;;5.57;1.58;;;6.30;85.60;;;;;;5022823;28;20033;-78
2023/01/16 10:24:10;;;;;;;2.90;1.27;;;6.30;85.60;;;;;;5018637;28;20449;-77
2023/01/16 10:27:01;;;;;;;3.05;1.17;;;6.50;85.50;;;;;;5020178;28;20510;-78
2023/01/16 10:29:39;;;;;;;3.45;1.52;;;6.50;85.40;;;;;;5014036;28;20504;-79
2023/01/16 10:32:36;;;;;;;4.10;2.08;;;6.60;85.30;;;;;;5015986;28;20052;-79
2023/01/16 10:35:22;;;;;;;3.28;1.50;;;6.60;85.20;;;;;;5011030;28;20075;-78
2023/01/16 10:37:50;;;;;;;4.63;1.58;;;6.80;85.20;;;;;;5004353;28;20049;-77
2023/01/16 10:40:17;;;;;;;4.75;1.98;;;7.00;84.90;;;;;;5026873;28;20053;-78
2023/01/16 10:51:06;;;;;;;3.72;1.60;;;7.10;84.00;;;;;;5015197;28;20487;-76
2023/01/16 10:53:34;;;;;;;2.45;1.30;;;7.30;83.90;;;;;;5023122;28;20053;-77
2023/01/16 10:56:01;;;;;;;3.67;1.45;;;7.20;83.70;;;;;;5017297;28;20734;-78
2023/01/16 10:58:34;;;;;;;3.22;1.80;;;7.20;84.00;;;;;;5018791;28;20091;-78
2023/01/16 11:01:22;;;;;;;5.82;1.83;;;7.30;84.10;;;;;;5019793;28;20029;-78
2023/01/16 11:03:51;;;;;;;2.53;1.55;;;7.20;84.00;;;;;;5030664;28;20243;-78
2023/01/16 11:06:28;;;;;;;4.15;1.55;;;7.10;84.00;;;;;;5022058;28;20143;-77
2023/01/16 11:08:55;;;;;;;4.30;2.05;;;7.10;84.40;;;;;;5017140;28;20017;-78
2023/01/16 11:20:04;;;;;;;4.15;2.00;;;7.50;84.10;;;;;;5019288;28;20033;-78
2023/01/16 11:22:30;;;;;;;5.03;2.35;;;7.60;84.20;;;;;;5020985;28;20065;-77
2023/01/16 11:25:00;;;;;;;8.20;2.47;;;7.70;84.30;;;;;;5006910;28;20072;-76
2023/01/16 11:27:30;;;;;;;6.28;2.33;;;7.80;83.70;;;;;;5009954;28;20049;-76
2023/01/16 11:29:57;;;;;;;8.57;2.40;;;7.80;83.70;;;;;;5019847;28;20030;-75
2023/01/16 11:32:27;;;;;;;6.05;2.42;;;7.70;83.20;;;;;;5032037;28;20038;-75
2023/01/16 11:34:57;;;;;;;7.53;2.40;;;7.80;83.70;;;;;;5030362;28;20034;-75
2023/01/16 11:37:27;;;;;;;8.50;2.53;;;7.70;83.90;;;;;;5032898;28;20259;-74
2023/01/16 11:39:54;;;;;;;6.47;3.22;;;7.70;84.00;;;;;;5035762;28;20033;-75
2023/01/16 11:48:22;;;;;;;7.35;3.03;;;7.70;83.90;;;;;;5006740;28;20847;-79
2023/01/16 11:50:52;;;;;;;9.98;2.60;;;7.60;84.00;;;;;;5017007;28;20064;-75
2023/01/16 11:53:18;;;;;;;8.20;3.42;;;7.60;84.30;;;;;;5010756;28;20021;-75
2023/01/16 11:56:06;;;;;;;9.02;4.18;;;7.60;84.60;;;;;;5007535;28;20079;-76
2023/01/16 11:58:41;;;;;;;7.55;3.13;;;7.60;84.90;;;;;;5011364;28;20480;-79
2023/01/16 12:01:10;;;;;;;7.43;2.67;;;7.60;85.00;;;;;;5015942;28;20034;-75
2023/01/16 12:03:50;;;;;;;8.05;2.78;;;7.40;85.30;;;;;;5017954;28;20029;-78
2023/01/16 12:06:37;;;;;;;7.80;2.50;;;7.40;85.70;;;;;;5013610;28;20065;-80
2023/01/16 12:09:38;;;;;;;8.57;3.00;;;7.30;85.90;;;;;;5016700;28;20033;-80
2023/01/16 12:15:23;;;;;;;5.63;2.83;;;7.30;86.50;;;;;;5009400;28;20135;-75
2023/01/16 12:17:54;;;;;;;6.47;2.80;;;7.20;87.10;;;;;;4988966;28;20042;-76
2023/01/16 12:20:34;;;;;;;9.15;3.03;;;7.20;87.30;;;;;;4987585;28;20026;-78
2023/01/16 12:23:16;;;;;;;12.60;11.30;;;7.20;87.50;;;;;;4987121;28;20779;-77
2023/01/16 12:26:06;;;;;;;11.75;10.55;;;7.10;87.70;;;;;;4991670;28;20030;-78
2023/01/16 12:28:40;;;;;;;7.00;3.40;;;7.10;87.80;;;;;;4991487;28;20061;-79
2023/01/16 12:31:44;;;;;;;6.75;4.55;;;7.00;88.10;;;;;;4983635;28;21742;-76
2023/01/16 12:34:34;;;;;;;8.00;4.35;;;6.90;88.60;;;;;;4987886;28;20030;-77
2023/01/16 12:37:06;;;;;;;5.63;2.60;;;6.90;88.70;;;;;;4995853;28;20054;-77
2023/01/16 12:40:02;;;;;;;5.85;2.47;;;6.90;87.80;;;;;;4999947;28;20029;-78
2023/01/16 12:45:58;;;;;;;3.75;1.77;;;6.80;87.00;;;;;;4995642;28;20064;-78
2023/01/16 12:48:52;;;;;;;4.28;2.10;;;6.70;86.60;;;;;;4993089;28;20378;-78
2023/01/16 12:51:38;;;;;;;4.22;2.15;;;6.40;87.00;;;;;;4996647;28;20041;-78
2023/01/16 12:54:06;;;;;;;3.53;1.75;;;6.40;87.50;;;;;;4996017;28;20033;-78
2023/01/16 12:56:57;;;;;;;1.98;1.55;;;6.30;86.60;;;;;;4991185;28;20058;-77
2023/01/16 12:59:57;;;;;;;3.47;1.50;;;6.20;86.60;;;;;;4995178;28;20026;-77
2023/01/16 13:02:31;;;;;;;2.17;1.50;;;6.30;86.70;;;;;;4973063;28;20038;-75
2023/01/16 13:05:12;;;;;;;3.10;1.90;;;6.40;86.90;;;;;;4988773;28;20092;-75
2023/01/16 13:07:44;;;;;;;4.45;2.13;;;6.40;86.90;;;;;;4990478;28;20736;-76
2023/01/16 13:15:43;;;;;;;6.28;3.10;;;6.40;87.60;;;;;;4991255;28;20509;-79
2023/01/16 13:18:58;;;;;;;6.43;2.97;;;6.40;88.00;;;;;;4994210;28;20111;-77
2023/01/16 13:21:30;;;;;;;5.07;2.78;;;6.50;88.40;;;;;;4978725;28;20584;-75
2023/01/16 13:24:03;;;;;;;8.45;3.83;;;6.50;88.70;;;;;;4996796;28;20038;-77
2023/01/16 13:26:30;;;;;;;6.50;3.30;;;6.40;88.70;;;;;;4990478;28;20858;-75
2023/01/16 13:29:04;;;;;;;6.13;3.10;;;6.50;89.10;;;;;;5014558;28;20040;-79
2023/01/16 13:31:57;;;;;;;8.95;3.50;;;6.50;89.30;;;;;;5000408;28;20110;-76
2023/01/16 13:34:29;;;;;;;6.00;3.45;;;6.40;89.50;;;;;;5002101;28;20454;-77
2023/01/16 13:37:07;;;;;;;7.50;2.92;;;6.40;89.90;;;;;;4992671;28;20527;-78
2023/01/16 13:39:54;;;;;;;7.68;3.40;;;6.40;90.10;;;;;;4989778;28;20026;-78
2023/01/16 13:42:22;;;;;;;6.95;2.92;;;6.40;90.50;;;;;;4992316;28;20060;-77
2023/01/16 13:47:40;;;;;;;3.58;1.85;;;6.20;89.90;;;;;;4991600;28;20041;-78
2023/01/16 13:50:20;;;;;;;3.22;1.30;;;6.10;88.60;;;;;;4989544;28;20077;-77
2023/01/16 13:52:46;;;;;;;6.18;2.30;;;6.10;88.20;;;;;;5015406;28;20034;-76
2023/01/16 13:55:34;;;;;;;4.32;1.60;;;6.10;88.50;;;;;;5011264;28;20247;-78
2023/01/16 13:58:21;;;;;;;5.07;2.00;;;6.10;88.90;;;;;;5008176;28;20052;-76
2023/01/16 14:00:58;;;;;;;6.30;1.80;;;6.20;89.20;;;;;;5009542;28;20034;-75
2023/01/16 14:03:32;;;;;;;7.90;2.40;;;6.20;89.90;;;;;;5010110;28;20026;-74
2023/01/16 14:06:10;;;;;;;7.18;2.22;;;6.40;90.00;;;;;;5018748;28;20179;-77
2023/01/16 14:11:37;;;;;;;8.93;2.30;;;6.40;89.60;;;;;;5009512;28;20409;-76
2023/01/16 14:17:14;;;;;;;10.05;1.83;;;6.40;89.20;;;;;;5011070;28;20075;-75
2023/01/16 14:20:01;;;;;;;7.85;1.88;;;6.40;89.00;;;;;;5012779;28;20037;-75
2023/01/16 14:25:07;;;;;;;9.82;1.77;;;6.30;88.80;;;;;;5015313;28;20038;-74
2023/01/16 14:27:40;;;;;;;6.50;1.95;;;6.20;88.60;;;;;;5007012;28;20032;-75
2023/01/16 14:30:14;;;;;;;7.75;2.53;;;6.20;88.20;;;;;;5008649;28;20669;-77
2023/01/16 14:32:46;;;;;;;10.35;1.73;;;6.20;88.50;;;;;;5010743;28;20152;-74
2023/01/16 14:35:18;;;;;;;4.82;1.60;;;6.20;88.50;;;;;;5009744;28;20487;-76
2023/01/16 14:38:05;;;;;;;8.38;1.63;;;6.20;88.20;;;;;;5007713;28;20096;-74
2023/01/16 14:55:47;;;;;;;8.80;1.90;;;6.00;87.80;;;;;;5017910;28;20083;-76
2023/01/16 14:58:20;;;;;;;10.30;2.20;;;5.90;88.20;;;;;;5019636;28;20028;-74
2023/01/16 15:00:50;;;;;;;5.97;1.75;;;5.90;88.50;;;;;;5031342;28;20036;-74